Climatologie pour Saint-Brevin les Pins
Jour • Résumé pour mai 24, 2017 Système :  Métrique    Anglais   Mixte
« - 1 jour
+ 1 jour »
Jour Semaine Mois Année Personnalisé
  Maximum : Minimum : Moyenne :
Température sous abri : -17.8 °C -10.1 °C -6.7 °C
Point de rosée : -17.8 °C -10.6 °C -8.9 °C
Humidité : Humidity % 59 % 79 %
Vitesse du vent : 0 km/h 0 km/h 9.8 km/h
Rafale : 0 km/h - -
Direction :- - ENE
Pression : 0 hPa 34554.1 hPa -
Précipitations : 0 mm    
Historical Graphs
 
 
Tableau de données pour mai 24, 2017
Heure Tempé Pt rosée Pression Vent Vitesse Rafale Humidité Taux pluie (/hr) Soleil
-17.8 °C -17.8 °C 0 hPa Calm     Humidity % 0 mm SolarRadiationWatts/m^2 W/m2 Conditions
00:00 -9.5 °C -9.9 °C 34693 hPa Calm   2.6 km/h 95 % 0 mm 0 W/m2
00:05 -9.4 °C -9.8 °C 34703.1 hPa Calm   7.7 km/h 96 % 0 mm 0 W/m2
00:10 -9.4 °C -9.8 °C 34703.1 hPa North 5.1 km/h 10.3 km/h 96 % 0 mm 0 W/m2
00:15 -9.4 °C -9.8 °C 34703.1 hPa NNE 2.6 km/h 10.3 km/h 96 % 0 mm 0 W/m2
00:20 -9.6 °C -9.9 °C 34703.1 hPa North 5.1 km/h 10.3 km/h 96 % 0 mm 0 W/m2
00:25 -9.5 °C -9.8 °C 34693 hPa Calm   10.3 km/h 96 % 0 mm 0 W/m2
00:30 -9.5 °C -9.8 °C 34693 hPa NNE 2.6 km/h 10.3 km/h 96 % 0 mm 0 W/m2
00:35 -9.5 °C -9.8 °C 34693 hPa NE 5.1 km/h 10.3 km/h 96 % 0 mm 0 W/m2
00:45 -9.3 °C -9.7 °C 34693 hPa NNE 2.6 km/h 12.9 km/h 96 % 0 mm 0 W/m2
00:50 -9.3 °C -9.7 °C 34693 hPa NNE 2.6 km/h 10.3 km/h 96 % 0 mm 0 W/m2
00:55 -9.3 °C -9.7 °C 34693 hPa NE 7.7 km/h 10.3 km/h 96 % 0 mm 0 W/m2
01:00 -9.4 °C -9.7 °C 34693 hPa NNE 2.6 km/h 10.3 km/h 96 % 0 mm 0 W/m2
01:05 -9.4 °C -9.8 °C 34693 hPa NE 2.6 km/h 12.9 km/h 96 % 0 mm 0 W/m2
01:10 -9.3 °C -9.7 °C 34693 hPa NE 5.1 km/h 12.9 km/h 96 % 0 mm 0 W/m2
01:15 -9.3 °C -9.7 °C 34693 hPa NE 10.3 km/h 12.9 km/h 96 % 0 mm 0 W/m2
01:20 -9.3 °C -9.8 °C 34693 hPa North 5.1 km/h 12.9 km/h 95 % 0 mm 0 W/m2
01:25 -9.3 °C -9.8 °C 34693 hPa NNE 5.1 km/h 18.2 km/h 95 % 0 mm 0 W/m2
01:30 -9.3 °C -9.8 °C 34693 hPa NE 10.3 km/h 18.2 km/h 95 % 0 mm 0 W/m2
01:35 -9.4 °C -9.9 °C 34693 hPa North 5.1 km/h 12.9 km/h 94 % 0 mm 0 W/m2
01:40 -9.4 °C -9.8 °C 34693 hPa NNE 7.7 km/h 12.9 km/h 95 % 0 mm 0 W/m2
01:45 -9.4 °C -10 °C 34693 hPa ENE 7.7 km/h 12.9 km/h 94 % 0 mm 0 W/m2
01:50 -9.4 °C -10 °C 34693 hPa Calm   12.9 km/h 94 % 0 mm 0 W/m2
01:55 -9.3 °C -9.8 °C 34693 hPa Calm   12.9 km/h 95 % 0 mm 0 W/m2
02:00 -9.4 °C -9.9 °C 34693 hPa Calm   10.3 km/h 94 % 0 mm 0 W/m2
02:05 -9.4 °C -9.9 °C 34693 hPa North 5.1 km/h 12.9 km/h 94 % 0 mm 0 W/m2
02:10 -9.4 °C -9.9 °C 34693 hPa NE 2.6 km/h 15.6 km/h 95 % 0 mm 0 W/m2
02:15 -9.5 °C -10 °C 34693 hPa Calm   15.6 km/h 94 % 0 mm 0 W/m2
02:20 -9.5 °C -10 °C 34693 hPa ENE 2.6 km/h 10.3 km/h 94 % 0 mm 0 W/m2
02:25 -9.6 °C -10.1 °C 34693 hPa Calm   7.7 km/h 94 % 0 mm 0 W/m2
02:30 -9.6 °C -10 °C 34693 hPa Calm   10.3 km/h 95 % 0 mm 0 W/m2
02:35 -9.6 °C -10.1 °C 34693 hPa NNE 10.3 km/h 10.3 km/h 94 % 0 mm 0 W/m2
02:40 -9.6 °C -10 °C 34693 hPa Calm   10.3 km/h 95 % 0 mm 0 W/m2
02:45 -9.6 °C -10.1 °C 34693 hPa Calm   10.3 km/h 94 % 0 mm 0 W/m2
02:50 -9.7 °C -10.3 °C 34693 hPa Calm   7.7 km/h 94 % 0 mm 0 W/m2
02:55 -9.8 °C -10.3 °C 34693 hPa Calm   7.7 km/h 94 % 0 mm 0 W/m2
03:00 -9.9 °C -10.3 °C 34693 hPa ENE 2.6 km/h 5.1 km/h 95 % 0 mm 0 W/m2
03:05 -9.9 °C -10.2 °C 34693 hPa Calm   5.1 km/h 96 % 0 mm 0 W/m2
03:10 -9.9 °C -10.4 °C 34693 hPa East 7.7 km/h 10.3 km/h 95 % 0 mm 0 W/m2
03:15 -10.1 °C -10.4 °C 34693 hPa Calm   12.9 km/h 95 % 0 mm 0 W/m2
03:20 -10.1 °C -10.6 °C 34693 hPa Calm   12.9 km/h 95 % 0 mm 0 W/m2
03:25 -10.1 °C -10.4 °C 34693 hPa NNE 5.1 km/h 7.7 km/h 96 % 0 mm 0 W/m2
03:30 -10 °C -10.3 °C 34693 hPa Calm   7.7 km/h 96 % 0 mm 0 W/m2
03:35 -9.9 °C -10.3 °C 34693 hPa ENE 5.1 km/h 10.3 km/h 96 % 0 mm 0 W/m2
03:40 -9.9 °C -10.3 °C 34682.8 hPa ENE 7.7 km/h 12.9 km/h 96 % 0 mm 0 W/m2
03:45 -9.9 °C -10.4 °C 34693 hPa ENE 7.7 km/h 12.9 km/h 95 % 0 mm 0 W/m2
03:50 -10.1 °C -10.4 °C 34693 hPa ENE 2.6 km/h 10.3 km/h 96 % 0 mm 0 W/m2
03:55 -10.1 °C -10.5 °C 34693 hPa Calm   12.9 km/h 95 % 0 mm 0 W/m2
04:00 -10 °C -10.3 °C 34693 hPa Calm   12.9 km/h 96 % 0 mm 0 W/m2
04:05 -10.1 °C -10.5 °C 34693 hPa ENE 7.7 km/h 10.3 km/h 95 % 0 mm 0 W/m2
04:10 -10.1 °C -10.4 °C 34693 hPa ENE 2.6 km/h 12.9 km/h 96 % 0 mm 0 W/m2
04:15 -10.1 °C -10.4 °C 34693 hPa NE 2.6 km/h 12.9 km/h 96 % 0 mm 0 W/m2
04:20 -10.1 °C -10.4 °C 34693 hPa Calm   12.9 km/h 96 % 0 mm 0 W/m2
04:25 -10.1 °C -10.4 °C 34693 hPa ENE 5.1 km/h 12.9 km/h 96 % 0 mm 0 W/m2
04:30 -9.9 °C -10.3 °C 34693 hPa Calm   12.9 km/h 96 % 0 mm 0 W/m2
04:35 -10 °C -10.3 °C 34693 hPa NE 2.6 km/h 12.9 km/h 96 % 0 mm 0 W/m2
04:40 -10.1 °C -10.4 °C 34693 hPa Calm   15.6 km/h 96 % 0 mm 0 W/m2
04:45 -10.1 °C -10.4 °C 34693 hPa ENE 5.1 km/h 20.8 km/h 96 % 0 mm 0 W/m2
04:50 -10.1 °C -10.6 °C 34693 hPa ENE 2.6 km/h 20.8 km/h 95 % 0 mm 0 W/m2
04:55 -10.1 °C -10.4 °C 34693 hPa East 5.1 km/h 18.2 km/h 96 % 0 mm 0 W/m2
05:00 -9.9 °C -10.3 °C 34693 hPa ENE 7.7 km/h 18.2 km/h 96 % 0 mm 0 W/m2
05:05 -10.1 °C -10.4 °C 34693 hPa NNE 2.6 km/h 15.6 km/h 96 % 0 mm 0 W/m2
05:15 -9.9 °C -10.3 °C 34682.8 hPa East 7.7 km/h 20.8 km/h 96 % 0 mm 0 W/m2
05:20 -9.9 °C -10.2 °C 34682.8 hPa ENE 5.1 km/h 23.3 km/h 96 % 0 mm 0 W/m2
05:25 -9.8 °C -10.2 °C 34682.8 hPa ENE 5.1 km/h 23.3 km/h 96 % 0 mm 0 W/m2
05:30 -9.8 °C -10.3 °C 34682.8 hPa East 5.1 km/h 18.2 km/h 95 % 0 mm 0 W/m2
05:35 -9.8 °C -10.2 °C 34682.8 hPa Calm   18.2 km/h 96 % 0 mm 0 W/m2
05:40 -9.9 °C -10.3 °C 34682.8 hPa East 7.7 km/h 18.2 km/h 95 % 0 mm 0 W/m2
05:45 -9.9 °C -10.4 °C 34682.8 hPa East 7.7 km/h 18.2 km/h 95 % 0 mm 0 W/m2
05:50 -9.9 °C -10.4 °C 34682.8 hPa Calm   18.2 km/h 95 % 0 mm 0 W/m2
05:55 -10.1 °C -10.4 °C 34682.8 hPa ENE 10.3 km/h 18.2 km/h 95 % 0 mm 0 W/m2
06:00 -10.1 °C -10.4 °C 34682.8 hPa ENE 5.1 km/h 20.8 km/h 95 % 0 mm 0 W/m2
06:05 -9.9 °C -10.3 °C 34682.8 hPa ENE 5.1 km/h 20.8 km/h 96 % 0 mm 0 W/m2
06:10 -9.9 °C -10.3 °C 34682.8 hPa ESE 7.7 km/h 18.2 km/h 96 % 0 mm 0 W/m2
06:15 -9.9 °C -10.2 °C 34693 hPa ENE 5.1 km/h 18.2 km/h 96 % 0 mm 0 W/m2
06:20 -9.8 °C -10.2 °C 34693 hPa East 12.9 km/h 18.2 km/h 96 % 0 mm 0 W/m2
06:25 -9.8 °C -10.2 °C 34693 hPa East 7.7 km/h 25.9 km/h 96 % 0 mm 0 W/m2
06:30 -9.8 °C -10.1 °C 34693 hPa East 18.2 km/h 25.9 km/h 96 % 0 mm 5 W/m2
06:35 -9.8 °C -10.1 °C 34693 hPa ENE 23.3 km/h 23.3 km/h 96 % 0 mm 9 W/m2
06:40 -9.8 °C -10.1 °C 34693 hPa NE 7.7 km/h 23.3 km/h 96 % 0 mm 11 W/m2
06:45 -9.8 °C -10.1 °C 34693 hPa East 20.8 km/h 23.3 km/h 96 % 0 mm 14 W/m2
06:50 -9.8 °C -10.1 °C 34693 hPa NE 10.3 km/h 23.3 km/h 96 % 0 mm 16 W/m2
06:55 -9.8 °C -10.1 °C 34693 hPa NE 5.1 km/h 23.3 km/h 96 % 0 mm 19 W/m2
07:00 -9.8 °C -10.1 °C 34703.1 hPa ENE 5.1 km/h 18.2 km/h 96 % 0 mm 21 W/m2
07:05 -9.8 °C -10.1 °C 34703.1 hPa Calm   18.2 km/h 96 % 0 mm 25 W/m2
07:10 -9.8 °C -10.1 °C 34703.1 hPa NE 10.3 km/h 20.8 km/h 96 % 0 mm 26 W/m2
07:15 -9.8 °C -10.1 °C 34703.1 hPa ENE 7.7 km/h 20.8 km/h 96 % 0 mm 28 W/m2
07:20 -9.7 °C -10.1 °C 34693 hPa ENE 7.7 km/h 20.8 km/h 96 % 0 mm 32 W/m2
07:25 -9.7 °C -10.1 °C 34693 hPa ENE 7.7 km/h 18.2 km/h 96 % 0 mm 33 W/m2
07:30 -9.6 °C -10 °C 34703.1 hPa East 15.6 km/h 18.2 km/h 96 % 0 mm 35 W/m2
07:35 -9.6 °C -9.9 °C 34703.1 hPa ESE 2.6 km/h 23.3 km/h 96 % 0 mm 37 W/m2
07:40 -9.6 °C -9.9 °C 34703.1 hPa East 7.7 km/h 23.3 km/h 96 % 0 mm 39 W/m2
07:45 -9.5 °C -9.8 °C 34693 hPa ENE 2.6 km/h 23.3 km/h 96 % 0 mm 40 W/m2
07:50 -9.4 °C -9.8 °C 34703.1 hPa NE 10.3 km/h 25.9 km/h 96 % 0 mm 44 W/m2
07:55 -9.4 °C -9.8 °C 34703.1 hPa East 5.1 km/h 25.9 km/h 96 % 0 mm 46 W/m2
08:00 -9.3 °C -9.7 °C 34703.1 hPa NNE 5.1 km/h 23.3 km/h 96 % 0 mm 93 W/m2
08:05 -9.3 °C -9.7 °C 34703.1 hPa Calm   23.3 km/h 96 % 0 mm 207 W/m2
08:10 -9.2 °C -9.6 °C 34703.1 hPa East 7.7 km/h 20.8 km/h 96 % 0 mm 221 W/m2
08:15 -9.1 °C -9.6 °C 34703.1 hPa NNE 10.3 km/h 20.8 km/h 95 % 0 mm 234 W/m2
08:20 -9.1 °C -9.5 °C 34703.1 hPa ENE 2.6 km/h 23.3 km/h 95 % 0 mm 244 W/m2
08:25 -8.9 °C -9.4 °C 34703.1 hPa NNE 15.6 km/h 25.9 km/h 94 % 0 mm 262 W/m2
08:30 -8.9 °C -9.4 °C 34703.1 hPa NE 7.7 km/h 25.9 km/h 94 % 0 mm 278 W/m2
08:35 -8.8 °C -9.4 °C 34703.1 hPa NE 23.3 km/h 23.3 km/h 94 % 0 mm 292 W/m2
08:40 -8.8 °C -9.4 °C 34703.1 hPa NNE 20.8 km/h 25.9 km/h 93 % 0 mm 299 W/m2
08:45 -8.7 °C -9.4 °C 34703.1 hPa NNE 7.7 km/h 33.6 km/h 93 % 0 mm 257 W/m2
08:50 -8.7 °C -9.4 °C 34716.7 hPa ENE 7.7 km/h 33.6 km/h 92 % 0 mm 336 W/m2
08:55 -8.7 °C -9.4 °C 34703.1 hPa ENE 2.6 km/h 28.5 km/h 92 % 0 mm 350 W/m2
09:00 -8.6 °C -9.3 °C 34703.1 hPa East 2.6 km/h 28.5 km/h 92 % 0 mm 364 W/m2
09:05 -8.4 °C -9.3 °C 34703.1 hPa NE 10.3 km/h 25.9 km/h 91 % 0 mm 380 W/m2
09:10 -8.3 °C -9 °C 34716.7 hPa NNE 7.7 km/h 25.9 km/h 92 % 0 mm 394 W/m2
09:15 -8.2 °C -9.1 °C 34703.1 hPa NE 20.8 km/h 20.8 km/h 90 % 0 mm 410 W/m2
09:20 -8.1 °C -9 °C 34716.7 hPa NNE 12.9 km/h 23.3 km/h 90 % 0 mm 424 W/m2
09:25 -7.9 °C -8.9 °C 34716.7 hPa ENE 10.3 km/h 28.5 km/h 89 % 0 mm 438 W/m2
09:30 -7.8 °C -8.9 °C 34716.7 hPa ENE 33.6 km/h 33.6 km/h 88 % 0 mm 452 W/m2
09:35 -7.7 °C -8.9 °C 34703.1 hPa East 18.2 km/h 33.6 km/h 87 % 0 mm 468 W/m2
09:40 -7.6 °C -8.8 °C 34703.1 hPa ENE 28.5 km/h 33.6 km/h 87 % 0 mm 478 W/m2
09:45 -7.4 °C -8.8 °C 34716.7 hPa ENE 15.6 km/h 31.1 km/h 86 % 0 mm 494 W/m2
09:50 -7.3 °C -8.7 °C 34716.7 hPa NE 5.1 km/h 28.5 km/h 86 % 0 mm 506 W/m2
09:55 -7.2 °C -8.7 °C 34716.7 hPa Calm   25.9 km/h 85 % 0 mm 522 W/m2
10:00 -7.1 °C -8.6 °C 34703.1 hPa East 15.6 km/h 25.9 km/h 84 % 0 mm 534 W/m2
10:05 -7 °C -8.7 °C 34703.1 hPa ENE 2.6 km/h 33.6 km/h 83 % 0 mm 547 W/m2
10:10 -6.7 °C -8.2 °C 34703.1 hPa ENE 12.9 km/h 33.6 km/h 85 % 0 mm 559 W/m2
10:15 -6.8 °C -8.5 °C 34703.1 hPa ENE 5.1 km/h 28.5 km/h 82 % 0 mm 578 W/m2
10:20 -6.7 °C -8.6 °C 34703.1 hPa ENE 7.7 km/h 28.5 km/h 81 % 0 mm 591 W/m2
10:25 -6.7 °C -8.4 °C 34703.1 hPa ENE 7.7 km/h 31.1 km/h 82 % 0 mm 603 W/m2
10:30 -6.6 °C -8.4 °C 34703.1 hPa NE 5.1 km/h 31.1 km/h 82 % 0 mm 612 W/m2
10:40 -6.2 °C -8.2 °C 34703.1 hPa NE 2.6 km/h 25.9 km/h 80 % 0 mm 638 W/m2
10:45 -6.2 °C -8.1 °C 34703.1 hPa East 18.2 km/h 28.5 km/h 81 % 0 mm 649 W/m2
10:50 -6 °C -7.8 °C 34703.1 hPa ESE 20.8 km/h 28.5 km/h 82 % 0 mm 666 W/m2
10:55 -5.9 °C -8.3 °C 34703.1 hPa East 7.7 km/h 23.3 km/h 77 % 0 mm 679 W/m2
11:00 -5.9 °C -8.2 °C 34693 hPa ENE 12.9 km/h 25.9 km/h 78 % 0 mm 686 W/m2
11:05 -5.8 °C -8 °C 34693 hPa East 7.7 km/h 25.9 km/h 78 % 0 mm 700 W/m2
11:10 -5.6 °C -7.9 °C 34693 hPa ENE 12.9 km/h 23.3 km/h 77 % 0 mm 701 W/m2
11:15 -5.6 °C -8 °C 34693 hPa ESE 10.3 km/h 23.3 km/h 76 % 0 mm 719 W/m2
11:20 -5.2 °C -7.9 °C 34693 hPa SE 10.3 km/h 23.3 km/h 74 % 0 mm 728 W/m2
11:25 -5.1 °C -7.8 °C 34693 hPa ENE 5.1 km/h 31.1 km/h 74 % 0 mm 742 W/m2
11:30 -5.1 °C -8.2 °C 34693 hPa East 18.2 km/h 31.1 km/h 71 % 0 mm 751 W/m2
11:35 -5.1 °C -7.9 °C 34693 hPa ENE 23.3 km/h 31.1 km/h 73 % 0 mm 759 W/m2
11:40 -5.1 °C -8.2 °C 34693 hPa ENE 12.9 km/h 28.5 km/h 71 % 0 mm 773 W/m2
11:45 -5.1 °C -8.1 °C 34693 hPa ENE 10.3 km/h 28.5 km/h 71 % 0 mm 780 W/m2
11:50 -4.9 °C -8.1 °C 34693 hPa ESE 7.7 km/h 28.5 km/h 71 % 0 mm 782 W/m2
11:55 -4.9 °C -8 °C 34693 hPa East 5.1 km/h 31.1 km/h 71 % 0 mm 798 W/m2
12:00 -4.7 °C -7.8 °C 34693 hPa East 20.8 km/h 31.1 km/h 71 % 0 mm 805 W/m2
12:05 -4.6 °C -7.9 °C 34693 hPa Calm   25.9 km/h 69 % 0 mm 816 W/m2
12:10 -4.6 °C -7.8 °C 34693 hPa ENE 20.8 km/h 25.9 km/h 70 % 0 mm 844 W/m2
12:15 -4.6 °C -8 °C 34682.8 hPa East 18.2 km/h 28.5 km/h 69 % 0 mm 884 W/m2
12:20 -4.6 °C -7.6 °C 34682.8 hPa ENE 7.7 km/h 28.5 km/h 72 % 0 mm 884 W/m2
12:25 -4.7 °C -8.2 °C 34682.8 hPa NE 10.3 km/h 33.6 km/h 68 % 0 mm 893 W/m2
12:30 -4.9 °C -8.1 °C 34682.8 hPa ENE 12.9 km/h 33.6 km/h 71 % 0 mm 905 W/m2
12:35 -4.6 °C -7.3 °C 34682.8 hPa North 2.6 km/h 25.9 km/h 74 % 0 mm 902 W/m2
12:40 -4.5 °C -7.6 °C 34682.8 hPa ENE 23.3 km/h 25.9 km/h 71 % 0 mm 221 W/m2
12:45 -4.6 °C -7.8 °C 34682.8 hPa East 2.6 km/h 25.9 km/h 70 % 0 mm 926 W/m2
12:50 -4.1 °C -7.3 °C 34682.8 hPa SSE 10.3 km/h 31.1 km/h 71 % 0 mm 988 W/m2
12:55 -4.1 °C -7.5 °C 34682.8 hPa East 28.5 km/h 31.1 km/h 69 % 0 mm 995 W/m2
13:00 -4.2 °C -7.9 °C 34682.8 hPa NNE 23.3 km/h 33.6 km/h 66 % 0 mm 921 W/m2
13:05 -4.4 °C -7.5 °C 34682.8 hPa ENE 2.6 km/h 33.6 km/h 71 % 0 mm 1095 W/m2
13:15 -4.3 °C -7.6 °C 34669.3 hPa NNE 18.2 km/h 31.1 km/h 69 % 0 mm 1027 W/m2
13:20 -4.2 °C -7.7 °C 34669.3 hPa East 7.7 km/h 31.1 km/h 68 % 0 mm 1013 W/m2
13:25 -4.1 °C -7.8 °C 34669.3 hPa NNE 15.6 km/h 31.1 km/h 66 % 0 mm 1099 W/m2
13:30 -4 °C -8.1 °C 34669.3 hPa East 10.3 km/h 28.5 km/h 64 % 0 mm 334 W/m2
13:35 -4.6 °C -8 °C 34669.3 hPa NNE 7.7 km/h 28.5 km/h 68 % 0 mm 269 W/m2
13:40 -4.3 °C -7.9 °C 34669.3 hPa ESE 18.2 km/h 28.5 km/h 67 % 0 mm 1144 W/m2
13:45 -3.7 °C -7.4 °C 34669.3 hPa East 18.2 km/h 31.1 km/h 67 % 0 mm 290 W/m2
13:50 -4.3 °C -8 °C 34669.3 hPa East 18.2 km/h 31.1 km/h 66 % 0 mm 318 W/m2
13:55 -3.8 °C -7.9 °C 34669.3 hPa ENE 36.2 km/h 36.2 km/h 64 % 0 mm 1164 W/m2
14:00 -4.4 °C -7.9 °C 34659.1 hPa ENE 18.2 km/h 38.8 km/h 68 % 0 mm 338 W/m2
14:05 -4.6 °C -7.9 °C 34659.1 hPa NNE 7.7 km/h 38.8 km/h 69 % 0 mm 432 W/m2
14:10 -4.1 °C -7.6 °C 34659.1 hPa East 12.9 km/h 25.9 km/h 68 % 0 mm 1092 W/m2
14:15 -3.8 °C -7.6 °C 34659.1 hPa SE 18.2 km/h 33.6 km/h 66 % 0 mm 1076 W/m2
14:20 -3.9 °C -7.9 °C 34659.1 hPa East 5.1 km/h 33.6 km/h 64 % 0 mm 352 W/m2
14:25 -3.8 °C -7.9 °C 34659.1 hPa East 25.9 km/h 33.6 km/h 64 % 0 mm 947 W/m2
14:30 -3.6 °C -7.7 °C 34645.6 hPa East 2.6 km/h 33.6 km/h 64 % 0 mm 983 W/m2
14:35 -3.7 °C -8.1 °C 34645.6 hPa ENE 5.1 km/h 25.9 km/h 61 % 0 mm 301 W/m2
14:40 -3.7 °C -7.9 °C 34645.6 hPa NNE 12.9 km/h 31.1 km/h 63 % 0 mm 1116 W/m2
14:45 -3.7 °C -7.9 °C 34645.6 hPa ENE 18.2 km/h 31.1 km/h 63 % 0 mm 772 W/m2
14:50 -3.8 °C -7.6 °C 34645.6 hPa East 15.6 km/h 31.1 km/h 66 % 0 mm 1021 W/m2
14:55 -3.9 °C -8.1 °C 34645.6 hPa Calm   28.5 km/h 63 % 0 mm 322 W/m2
15:00 -4.1 °C -7.9 °C 34645.6 hPa ENE 18.2 km/h 28.5 km/h 66 % 0 mm 1025 W/m2
15:05 -3.7 °C -7.2 °C 34645.6 hPa East 2.6 km/h 25.9 km/h 68 % 0 mm 1051 W/m2
15:10 -3.7 °C -7.7 °C 34645.6 hPa NE 15.6 km/h 28.5 km/h 64 % 0 mm 995 W/m2
15:15 -3.4 °C -7.5 °C 34645.6 hPa East 7.7 km/h 28.5 km/h 64 % 0 mm 283 W/m2
15:20 -3.4 °C -7.9 °C 34645.6 hPa East 12.9 km/h 36.2 km/h 61 % 0 mm 925 W/m2
15:25 -3.4 °C -7.1 °C 34635.4 hPa East 15.6 km/h 36.2 km/h 67 % 0 mm 874 W/m2
15:30 -3.3 °C -7.6 °C 34635.4 hPa WNW 5.1 km/h 33.6 km/h 62 % 0 mm 983 W/m2
15:35 -3.8 °C -8.2 °C 34635.4 hPa East 18.2 km/h 36.2 km/h 62 % 0 mm 156 W/m2
15:40 -3.7 °C -7.9 °C 34635.4 hPa East 23.3 km/h 36.2 km/h 63 % 0 mm 858 W/m2
15:45 -3.4 °C -7.6 °C 34635.4 hPa East 15.6 km/h 36.2 km/h 63 % 0 mm 896 W/m2
15:50 -3.4 °C -7.9 °C 34635.4 hPa East 20.8 km/h 31.1 km/h 61 % 0 mm 861 W/m2
15:55 -3.2 °C -7.4 °C 34635.4 hPa ESE 23.3 km/h 31.1 km/h 63 % 0 mm 868 W/m2
16:00 -3.2 °C -7.4 °C 34635.4 hPa East 20.8 km/h 31.1 km/h 63 % 0 mm 826 W/m2
16:05 -3.2 °C -7.7 °C 34625.2 hPa NE 10.3 km/h 31.1 km/h 61 % 0 mm 768 W/m2
16:10 -3.3 °C -7.8 °C 34625.2 hPa North 18.2 km/h 36.2 km/h 61 % 0 mm 833 W/m2
16:20 -3.3 °C -7.8 °C 34625.2 hPa SSE 18.2 km/h 36.2 km/h 61 % 0 mm 784 W/m2
16:25 -3.2 °C -7.3 °C 34611.7 hPa East 18.2 km/h 28.5 km/h 64 % 0 mm 847 W/m2
16:30 -3.2 °C -7.7 °C 34611.7 hPa ENE 10.3 km/h 31.1 km/h 61 % 0 mm 814 W/m2
16:35 -3.2 °C -7.5 °C 34611.7 hPa ESE 18.2 km/h 31.1 km/h 62 % 0 mm 740 W/m2
16:40 -3.2 °C -7.4 °C 34611.7 hPa East 18.2 km/h 31.1 km/h 63 % 0 mm 742 W/m2
16:45 -2.9 °C -7.6 °C 34611.7 hPa ENE 10.3 km/h 33.6 km/h 60 % 0 mm 782 W/m2
16:50 -3.1 °C -7.9 °C 34611.7 hPa NE 10.3 km/h 33.6 km/h 59 % 0 mm 408 W/m2
16:55 -3.1 °C -7.4 °C 34611.7 hPa ENE 18.2 km/h 28.5 km/h 62 % 0 mm 770 W/m2
17:00 -3.3 °C -7.6 °C 34601.5 hPa East 12.9 km/h 28.5 km/h 63 % 0 mm 698 W/m2
17:05 -3.3 °C -7.8 °C 34601.5 hPa East 18.2 km/h 33.6 km/h 61 % 0 mm 686 W/m2
17:10 -3.4 °C -8 °C 34601.5 hPa East 15.6 km/h 36.2 km/h 60 % 0 mm 673 W/m2
17:15 -3.3 °C -8.1 °C 34601.5 hPa ESE 18.2 km/h 36.2 km/h 59 % 0 mm 142 W/m2
17:20 -3.2 °C -7.7 °C 34601.5 hPa ENE 20.8 km/h 33.6 km/h 61 % 0 mm 640 W/m2
17:25 -3.2 °C -7.7 °C 34601.5 hPa East 5.1 km/h 33.6 km/h 61 % 0 mm 682 W/m2
17:30 -3.2 °C -7.8 °C 34601.5 hPa NNE 7.7 km/h 31.1 km/h 60 % 0 mm 613 W/m2
17:35 -3.2 °C -7.7 °C 34601.5 hPa ENE 23.3 km/h 36.2 km/h 61 % 0 mm 622 W/m2
17:40 -3.1 °C -7.9 °C 34591.4 hPa East 7.7 km/h 36.2 km/h 59 % 0 mm 589 W/m2
17:45 -3.2 °C -7.5 °C 34591.4 hPa East 7.7 km/h 38.8 km/h 62 % 0 mm 587 W/m2
17:50 -3.1 °C -7.9 °C 34591.4 hPa East 7.7 km/h 38.8 km/h 59 % 0 mm 557 W/m2
17:55 -3.1 °C -7.8 °C 34591.4 hPa ENE 7.7 km/h 38.8 km/h 60 % 0 mm 547 W/m2
18:00 -3.2 °C -7.8 °C 34591.4 hPa ENE 12.9 km/h 38.8 km/h 60 % 0 mm 533 W/m2
18:05 -3.2 °C -7.7 °C 34591.4 hPa East 18.2 km/h 33.6 km/h 61 % 0 mm 515 W/m2
18:10 -3.1 °C -7.9 °C 34591.4 hPa East 18.2 km/h 36.2 km/h 59 % 0 mm 504 W/m2
18:15 -3.1 °C -7.6 °C 34577.8 hPa NNE 2.6 km/h 36.2 km/h 61 % 0 mm 490 W/m2
18:20 -3.1 °C -7.9 °C 34591.4 hPa East 25.9 km/h 28.5 km/h 59 % 0 mm 471 W/m2
18:25 -3.3 °C -8.1 °C 34591.4 hPa ENE 10.3 km/h 33.6 km/h 59 % 0 mm 462 W/m2
18:30 -3.3 °C -7.9 °C 34577.8 hPa ESE 10.3 km/h 33.6 km/h 60 % 0 mm 446 W/m2
18:35 -3.2 °C -7.9 °C 34577.8 hPa ENE 7.7 km/h 36.2 km/h 60 % 0 mm 436 W/m2
18:40 -3.2 °C -7.8 °C 34577.8 hPa ENE 2.6 km/h 36.2 km/h 60 % 0 mm 420 W/m2
18:45 -3.2 °C -7.9 °C 34577.8 hPa East 15.6 km/h 36.2 km/h 60 % 0 mm 404 W/m2
18:50 -3.3 °C -8 °C 34577.8 hPa SE 5.1 km/h 36.2 km/h 60 % 0 mm 387 W/m2
18:55 -3.4 °C -7.9 °C 34577.8 hPa East 18.2 km/h 44.1 km/h 61 % 0 mm 376 W/m2
19:00 -3.3 °C -7.8 °C 34567.7 hPa NE 18.2 km/h 44.1 km/h 61 % 0 mm 364 W/m2
19:05 -3.4 °C -8.2 °C 34567.7 hPa East 12.9 km/h 33.6 km/h 59 % 0 mm 350 W/m2
19:10 -3.4 °C -8.1 °C 34567.7 hPa NE 20.8 km/h 41.4 km/h 60 % 0 mm 336 W/m2
19:15 -3.5 °C -8.1 °C 34567.7 hPa ENE 28.5 km/h 41.4 km/h 60 % 0 mm 323 W/m2
19:20 -3.6 °C -8.2 °C 34567.7 hPa East 33.6 km/h 36.2 km/h 60 % 0 mm 308 W/m2
19:25 -3.6 °C -8.2 °C 34567.7 hPa ENE 7.7 km/h 41.4 km/h 60 % 0 mm 292 W/m2
19:30 -3.6 °C -8.1 °C 34567.7 hPa East 5.1 km/h 41.4 km/h 61 % 0 mm 278 W/m2
19:35 -3.7 °C -8.3 °C 34567.7 hPa ENE 10.3 km/h 38.8 km/h 60 % 0 mm 262 W/m2
19:40 -3.7 °C -8.2 °C 34567.7 hPa East 12.9 km/h 38.8 km/h 61 % 0 mm 248 W/m2
19:45 -3.7 °C -8.1 °C 34567.7 hPa East 23.3 km/h 33.6 km/h 61 % 0 mm 223 W/m2
19:50 -3.7 °C -8.2 °C 34567.7 hPa ENE 23.3 km/h 33.6 km/h 61 % 0 mm 199 W/m2
19:55 -3.7 °C -8.1 °C 34567.7 hPa NE 12.9 km/h 31.1 km/h 62 % 0 mm 179 W/m2
20:00 -3.8 °C -8.2 °C 34567.7 hPa ENE 2.6 km/h 31.1 km/h 62 % 0 mm 162 W/m2
20:05 -3.9 °C -8.2 °C 34567.7 hPa East 12.9 km/h 31.1 km/h 62 % 0 mm 171 W/m2
20:10 -3.9 °C -8.3 °C 34567.7 hPa ENE 5.1 km/h 28.5 km/h 62 % 0 mm 163 W/m2
20:15 -4.1 °C -8.4 °C 34567.7 hPa ESE 12.9 km/h 28.5 km/h 62 % 0 mm 137 W/m2
20:20 -4 °C -8.3 °C 34567.7 hPa ENE 12.9 km/h 28.5 km/h 62 % 0 mm 121 W/m2
20:25 -4.1 °C -8.3 °C 34567.7 hPa East 15.6 km/h 28.5 km/h 63 % 0 mm 100 W/m2
20:30 -4.3 °C -8.3 °C 34567.7 hPa ESE 12.9 km/h 28.5 km/h 64 % 0 mm 47 W/m2
20:35 -4.4 °C -8.3 °C 34567.7 hPa ENE 18.2 km/h 31.1 km/h 65 % 0 mm 39 W/m2
20:40 -4.5 °C -8.4 °C 34567.7 hPa NE 15.6 km/h 31.1 km/h 65 % 0 mm 32 W/m2
20:50 -4.7 °C -8.3 °C 34567.7 hPa East 2.6 km/h 28.5 km/h 67 % 0 mm 26 W/m2
20:55 -4.8 °C -8.3 °C 34567.7 hPa ENE 7.7 km/h 28.5 km/h 68 % 0 mm 25 W/m2
21:00 -4.8 °C -8.3 °C 34567.7 hPa East 20.8 km/h 28.5 km/h 68 % 0 mm 23 W/m2
21:05 -4.8 °C -8.4 °C 34554.1 hPa East 2.6 km/h 23.3 km/h 67 % 0 mm 21 W/m2
21:10 -4.9 °C -8.4 °C 34567.7 hPa ENE 5.1 km/h 23.3 km/h 68 % 0 mm 19 W/m2
21:15 -5.1 °C -8.4 °C 34554.1 hPa East 20.8 km/h 23.3 km/h 69 % 0 mm 16 W/m2
21:20 -5.2 °C -8.3 °C 34554.1 hPa ENE 10.3 km/h 23.3 km/h 70 % 0 mm 14 W/m2
21:25 -5.2 °C -8.4 °C 34554.1 hPa ENE 2.6 km/h 23.3 km/h 70 % 0 mm 12 W/m2
21:30 -5.4 °C -8.4 °C 34554.1 hPa NNE 7.7 km/h 23.3 km/h 71 % 0 mm 11 W/m2
21:35 -5.5 °C -8.4 °C 34554.1 hPa ENE 7.7 km/h 23.3 km/h 72 % 0 mm 7 W/m2
21:40 -5.6 °C -8.5 °C 34554.1 hPa NE 7.7 km/h 23.3 km/h 72 % 0 mm 7 W/m2
21:45 -5.7 °C -8.6 °C 34554.1 hPa ENE 12.9 km/h 23.3 km/h 73 % 0 mm 5 W/m2
21:50 -5.8 °C -8.4 °C 34554.1 hPa ENE 7.7 km/h 23.3 km/h 74 % 0 mm 0 W/m2
21:55 -5.9 °C -8.6 °C 34554.1 hPa ENE 10.3 km/h 23.3 km/h 74 % 0 mm 0 W/m2
22:00 -5.9 °C -8.6 °C 34554.1 hPa ENE 7.7 km/h 23.3 km/h 74 % 0 mm 0 W/m2
22:05 -6 °C -8.6 °C 34567.7 hPa East 12.9 km/h 23.3 km/h 75 % 0 mm 0 W/m2
22:10 -6.1 °C -8.6 °C 34554.1 hPa ENE 10.3 km/h 20.8 km/h 75 % 0 mm 0 W/m2
22:15 -6.2 °C -8.7 °C 34567.7 hPa ENE 10.3 km/h 20.8 km/h 75 % 0 mm 0 W/m2
22:20 -6.3 °C -8.7 °C 34567.7 hPa East 7.7 km/h 20.8 km/h 76 % 0 mm 0 W/m2
22:25 -6.3 °C -8.7 °C 34567.7 hPa ENE 7.7 km/h 20.8 km/h 77 % 0 mm 0 W/m2
22:30 -6.4 °C -8.7 °C 34567.7 hPa East 7.7 km/h 18.2 km/h 77 % 0 mm 0 W/m2
22:40 -6.6 °C -8.7 °C 34567.7 hPa ENE 12.9 km/h 20.8 km/h 78 % 0 mm 0 W/m2
22:50 -6.6 °C -8.7 °C 34567.7 hPa NNE 7.7 km/h 25.9 km/h 79 % 0 mm 0 W/m2
23:00 -6.6 °C -8.7 °C 34577.8 hPa East 12.9 km/h 23.3 km/h 79 % 0 mm 0 W/m2
23:05 -6.6 °C -8.7 °C 34567.7 hPa East 18.2 km/h 23.3 km/h 79 % 0 mm 0 W/m2
23:10 -6.6 °C -8.7 °C 34567.7 hPa NE 15.6 km/h 23.3 km/h 79 % 0 mm 0 W/m2
23:15 -6.7 °C -8.8 °C 34567.7 hPa ENE 7.7 km/h 20.8 km/h 79 % 0 mm 0 W/m2
23:20 -6.7 °C -8.8 °C 34567.7 hPa ENE 7.7 km/h 23.3 km/h 79 % 0 mm 0 W/m2
23:30 -6.6 °C -8.7 °C 34567.7 hPa East 15.6 km/h 31.1 km/h 79 % 0 mm 0 W/m2
23:35 -6.7 °C -8.8 °C 34567.7 hPa ENE 10.3 km/h 23.3 km/h 79 % 0 mm 0 W/m2
23:40 -6.7 °C -8.8 °C 34567.7 hPa East 2.6 km/h 20.8 km/h 79 % 0 mm 0 W/m2
23:45 -6.8 °C -8.8 °C 34567.7 hPa ENE 7.7 km/h 23.3 km/h 80 % 0 mm 0 W/m2
23:50 -6.8 °C -8.8 °C 34567.7 hPa East 18.2 km/h 23.3 km/h 80 % 0 mm 0 W/m2
23:55 -6.8 °C -8.8 °C 34567.7 hPa East 2.6 km/h 23.3 km/h 80 % 0 mm 0 W/m2
Avec l'autorisation de Weather Underground - 1.75 mb